createdAt,value
2023-05-05T00:01:44.877Z,4.43
2023-05-05T00:04:13.208Z,4.17
2023-05-05T00:06:43.092Z,4.43
2023-05-05T00:09:11.466Z,4.10
2023-05-05T00:11:39.995Z,4.63
2023-05-05T00:14:08.475Z,4.40
2023-05-05T00:16:37.008Z,4.50
2023-05-05T00:19:05.436Z,3.77
2023-05-05T00:21:33.762Z,5.67
2023-05-05T00:24:03.527Z,4.33
2023-05-05T00:26:31.905Z,4.20
2023-05-05T00:29:00.241Z,4.40
2023-05-05T00:31:28.662Z,4.20
2023-05-05T00:33:57.163Z,4.63
2023-05-05T00:36:25.878Z,4.30
2023-05-05T00:38:54.414Z,4.07
2023-05-05T00:41:24.178Z,4.00
2023-05-05T00:43:52.678Z,4.00
2023-05-05T00:46:24.791Z,4.67
2023-05-05T00:48:53.357Z,4.33
2023-05-05T00:51:22.599Z,4.33
2023-05-05T00:53:51.514Z,3.90
2023-05-05T00:56:21.842Z,3.73
2023-05-05T00:58:51.749Z,4.30
2023-05-05T01:01:20.251Z,4.00
2023-05-05T01:03:48.780Z,3.90
2023-05-05T01:06:23.484Z,4.53
2023-05-05T01:08:57.647Z,3.83
2023-05-05T01:11:28.584Z,3.93
2023-05-05T01:14:02.334Z,4.43
2023-05-05T01:16:32.436Z,3.90
2023-05-05T01:19:06.424Z,4.50
2023-05-05T01:21:37.991Z,3.90
2023-05-05T01:24:15.037Z,3.57
2023-05-05T01:26:52.591Z,4.43
2023-05-05T01:29:36.153Z,3.67
2023-05-05T01:32:08.345Z,3.60
2023-05-05T01:34:38.885Z,3.90
2023-05-05T01:37:09.792Z,3.90
2023-05-05T01:39:39.089Z,4.30
2023-05-05T01:42:10.256Z,4.13
2023-05-05T01:44:38.895Z,4.03
2023-05-05T01:47:09.008Z,3.90
2023-05-05T01:49:38.040Z,4.23
2023-05-05T01:52:07.609Z,4.00
2023-05-05T01:54:36.451Z,4.03
2023-05-05T01:57:05.599Z,4.03
2023-05-05T01:59:34.234Z,4.33
2023-05-05T02:02:03.956Z,3.77
2023-05-05T02:04:34.636Z,4.03
2023-05-05T02:07:04.076Z,3.80
2023-05-05T02:09:33.207Z,3.93
2023-05-05T02:12:02.738Z,3.70
2023-05-05T02:14:31.616Z,3.60
2023-05-05T02:17:00.376Z,4.00
2023-05-05T02:19:30.981Z,3.50
2023-05-05T02:22:00.813Z,3.90
2023-05-05T02:24:29.447Z,3.60
2023-05-05T02:26:58.865Z,3.37
2023-05-05T02:29:30.855Z,3.77
2023-05-05T02:32:03.295Z,4.10
2023-05-05T02:34:34.249Z,3.60
2023-05-05T02:37:06.543Z,3.40
2023-05-05T02:39:37.374Z,3.70
2023-05-05T02:42:06.481Z,3.67
2023-05-05T02:44:35.586Z,3.80
2023-05-05T02:47:05.022Z,3.27
2023-05-05T02:49:33.473Z,3.50
2023-05-05T02:52:02.082Z,3.60
2023-05-05T02:54:33.485Z,3.70
2023-05-05T02:57:02.428Z,3.20
2023-05-05T02:59:36.548Z,3.90
2023-05-05T03:02:09.581Z,3.07
2023-05-05T03:04:40.799Z,3.20
2023-05-05T03:07:12.125Z,3.43
2023-05-05T03:09:45.374Z,3.27
2023-05-05T03:12:15.582Z,3.27
2023-05-05T03:14:44.369Z,3.20
2023-05-05T03:17:13.105Z,3.50
2023-05-05T03:19:43.285Z,3.20
2023-05-05T03:22:11.853Z,3.67
2023-05-05T03:24:40.289Z,3.60
2023-05-05T03:27:10.029Z,3.60
2023-05-05T03:29:38.399Z,3.20
2023-05-05T03:32:07.352Z,3.33
2023-05-05T03:34:37.437Z,3.27
2023-05-05T03:37:05.969Z,3.40
2023-05-05T03:39:34.352Z,3.23
2023-05-05T03:42:02.882Z,3.50
2023-05-05T03:44:32.645Z,3.50
2023-05-05T03:47:01.044Z,3.37
2023-05-05T03:49:29.544Z,3.33
2023-05-05T03:51:57.904Z,3.37
2023-05-05T03:54:26.361Z,3.47
2023-05-05T03:56:56.290Z,3.43
2023-05-05T03:59:24.640Z,3.47
2023-05-05T04:01:54.870Z,3.30
2023-05-05T04:04:23.309Z,3.40
2023-05-05T04:06:51.794Z,3.73
2023-05-05T04:09:20.117Z,3.20
2023-05-05T04:11:48.501Z,3.57
2023-05-05T04:14:16.831Z,3.20
2023-05-05T04:16:45.136Z,4.23
2023-05-05T04:19:15.021Z,3.10
2023-05-05T04:21:43.405Z,3.10
2023-05-05T04:24:11.826Z,3.20
2023-05-05T04:26:40.245Z,3.43
2023-05-05T04:29:09.809Z,3.60
2023-05-05T04:31:38.335Z,3.70
2023-05-05T04:34:06.771Z,3.40
2023-05-05T04:36:36.626Z,3.53
2023-05-05T04:39:07.172Z,2.70
2023-05-05T04:41:35.666Z,3.60
2023-05-05T04:44:04.179Z,3.60
2023-05-05T04:46:34.796Z,2.80
2023-05-05T04:49:05.162Z,3.17
2023-05-05T04:51:33.536Z,2.63
2023-05-05T04:54:04.248Z,3.60
2023-05-05T04:56:32.976Z,3.20
2023-05-05T04:59:01.386Z,2.70
2023-05-05T05:01:29.919Z,2.60
2023-05-05T05:03:58.378Z,2.97
2023-05-05T05:06:27.252Z,3.80
2023-05-05T05:08:55.638Z,3.00
2023-05-05T05:11:25.462Z,3.20
2023-05-05T05:13:54.152Z,3.27
2023-05-05T05:16:22.693Z,3.60
2023-05-05T05:18:51.265Z,3.27
2023-05-05T05:21:19.644Z,3.50
2023-05-05T05:23:48.274Z,3.27
2023-05-05T05:26:16.651Z,3.10
2023-05-05T05:28:46.514Z,3.10
2023-05-05T05:31:14.994Z,2.83
2023-05-05T05:33:43.945Z,2.80
2023-05-05T05:36:12.396Z,3.20
2023-05-05T05:38:40.911Z,3.13
2023-05-05T05:41:09.273Z,2.70
2023-05-05T05:43:37.593Z,2.80
2023-05-05T05:46:09.013Z,3.00
2023-05-05T05:48:38.273Z,3.10
2023-05-05T05:51:06.621Z,3.17
2023-05-05T05:53:35.014Z,3.00
2023-05-05T05:56:03.333Z,3.20
2023-05-05T05:58:31.914Z,3.40
2023-05-05T06:01:00.310Z,3.00
2023-05-05T06:03:30.125Z,3.10
2023-05-05T06:05:59.032Z,3.10
2023-05-05T06:08:27.612Z,2.93
2023-05-05T06:10:56.066Z,2.83
2023-05-05T06:13:24.436Z,2.57
2023-05-05T06:15:52.861Z,2.90
2023-05-05T06:18:21.239Z,3.00
2023-05-05T06:20:52.694Z,3.20
2023-05-05T06:23:21.335Z,2.83
2023-05-05T06:25:50.843Z,2.77
2023-05-05T06:28:19.598Z,3.07
2023-05-05T06:30:47.961Z,3.37
2023-05-05T06:33:16.688Z,2.80
2023-05-05T06:35:45.177Z,2.80
2023-05-05T06:38:14.984Z,2.77
2023-05-05T06:40:43.425Z,3.17
2023-05-05T06:43:12.018Z,2.70
2023-05-05T06:45:41.060Z,2.50
2023-05-05T06:48:10.965Z,2.63
2023-05-05T06:50:39.388Z,3.00
2023-05-05T06:53:07.685Z,3.17
2023-05-05T06:55:37.433Z,2.90
2023-05-05T06:58:05.810Z,3.00
2023-05-05T07:00:34.301Z,2.97
2023-05-05T07:03:02.847Z,2.90
2023-05-05T07:05:31.210Z,2.90
2023-05-05T07:08:01.074Z,2.93
2023-05-05T07:10:29.952Z,2.80
2023-05-05T07:12:59.765Z,2.77
2023-05-05T07:15:29.516Z,2.83
2023-05-05T07:17:58.568Z,3.27
2023-05-05T07:20:27.240Z,3.10
2023-05-05T07:22:55.935Z,3.37
2023-05-05T07:25:24.321Z,3.20
2023-05-05T07:27:52.804Z,2.70
2023-05-05T07:30:23.048Z,2.63
2023-05-05T07:32:51.911Z,2.77
2023-05-05T07:35:20.405Z,3.00
2023-05-05T07:37:48.982Z,3.20
2023-05-05T07:40:17.414Z,2.70
2023-05-05T07:42:47.478Z,2.97
2023-05-05T07:45:15.974Z,3.00
2023-05-05T07:47:47.382Z,3.43
2023-05-05T07:50:16.310Z,3.43
2023-05-05T07:52:49.884Z,3.13
2023-05-05T07:55:24.632Z,3.43
2023-05-05T07:57:53.012Z,3.60
2023-05-05T08:00:21.789Z,3.27
2023-05-05T08:02:51.669Z,2.97
2023-05-05T08:05:20.300Z,3.33
2023-05-05T08:07:48.650Z,3.17
2023-05-05T08:10:17.140Z,3.60
2023-05-05T08:12:45.522Z,3.40
2023-05-05T08:15:14.320Z,3.10
2023-05-05T08:17:46.802Z,3.37
2023-05-05T08:20:16.561Z,2.60
2023-05-05T08:22:45.362Z,2.87
2023-05-05T08:25:14.416Z,2.97
2023-05-05T08:27:43.695Z,3.00
2023-05-05T08:30:12.685Z,2.90
2023-05-05T08:32:41.173Z,2.70
2023-05-05T08:35:10.317Z,2.97
2023-05-05T08:37:40.298Z,2.80
2023-05-05T08:40:09.378Z,3.03
2023-05-05T08:42:39.438Z,2.60
2023-05-05T08:45:08.919Z,2.55
2023-05-05T08:47:37.804Z,2.90
2023-05-05T08:50:06.831Z,3.10
2023-05-05T08:52:40.393Z,3.10
2023-05-05T08:55:15.433Z,2.70
2023-05-05T08:57:47.570Z,2.97
2023-05-05T09:00:19.758Z,2.90
2023-05-05T09:02:48.768Z,2.78
2023-05-05T09:05:17.538Z,2.65
2023-05-05T09:07:46.932Z,2.70
2023-05-05T09:10:16.708Z,3.22
2023-05-05T09:12:45.115Z,2.88
2023-05-05T09:15:14.648Z,2.70
2023-05-05T09:17:43.192Z,2.65
2023-05-05T09:20:12.419Z,3.38
2023-05-05T09:22:41.613Z,2.80
2023-05-05T09:25:11.484Z,2.92
2023-05-05T09:27:42.081Z,2.40
2023-05-05T09:30:11.147Z,2.85
2023-05-05T09:32:46.345Z,2.83
2023-05-05T09:35:15.014Z,2.72
2023-05-05T09:37:43.552Z,3.03
2023-05-05T09:40:12.649Z,3.30
2023-05-05T09:42:42.615Z,3.10
2023-05-05T09:45:26.165Z,3.00
2023-05-05T09:47:59.200Z,2.80
2023-05-05T09:50:30.877Z,3.30
2023-05-05T09:52:59.918Z,2.90
2023-05-05T09:55:28.465Z,4.10
2023-05-05T09:57:58.474Z,2.93
2023-05-05T10:00:39.574Z,3.17
2023-05-05T10:03:08.036Z,2.97
2023-05-05T10:05:48.244Z,3.10
2023-05-05T10:08:16.633Z,2.93
2023-05-05T10:10:48.381Z,3.23
2023-05-05T10:13:20.026Z,3.13
2023-05-05T10:15:49.802Z,3.53
2023-05-05T10:18:21.131Z,2.80
2023-05-05T10:20:50.953Z,3.70
2023-05-05T10:23:20.680Z,3.60
2023-05-05T10:25:53.246Z,4.07
2023-05-05T10:28:25.116Z,3.57
2023-05-05T10:30:55.408Z,3.57
2023-05-05T10:33:31.642Z,2.93
2023-05-05T10:36:03.108Z,3.10
2023-05-05T10:38:32.132Z,3.00
2023-05-05T10:41:01.139Z,2.53
2023-05-05T10:43:31.371Z,3.13
2023-05-05T10:45:59.923Z,3.33
2023-05-05T10:48:35.179Z,3.37
2023-05-05T10:51:38.337Z,3.10
2023-05-05T10:54:11.551Z,3.53
2023-05-05T10:56:42.014Z,3.40
2023-05-05T10:59:25.218Z,2.90
2023-05-05T11:01:55.013Z,3.20
2023-05-05T11:04:24.110Z,3.70
2023-05-05T11:07:14.407Z,3.47
2023-05-05T11:09:56.644Z,3.60
2023-05-05T11:12:25.115Z,3.27
2023-05-05T11:15:12.023Z,4.30
2023-05-05T11:17:48.154Z,4.93
2023-05-05T11:20:16.937Z,3.97
2023-05-05T11:23:03.761Z,3.50
2023-05-05T11:25:51.469Z,3.53
2023-05-05T11:28:21.178Z,3.37
2023-05-05T11:31:04.471Z,3.07
2023-05-05T11:33:35.984Z,3.53
2023-05-05T11:36:06.821Z,3.43
2023-05-05T11:38:43.136Z,3.40
2023-05-05T11:41:14.499Z,3.30
2023-05-05T11:43:42.911Z,3.00
2023-05-05T11:46:11.964Z,3.30
2023-05-05T11:48:48.088Z,3.77
2023-05-05T11:51:17.295Z,3.93
2023-05-05T11:53:46.549Z,3.70
2023-05-05T11:56:19.089Z,3.50
2023-05-05T11:58:47.649Z,3.60
2023-05-05T12:01:16.644Z,3.83
2023-05-05T12:03:45.864Z,3.50
2023-05-05T12:06:15.894Z,4.10
2023-05-05T12:08:44.326Z,3.60
2023-05-05T12:11:12.831Z,4.30
2023-05-05T12:13:41.578Z,3.60
2023-05-05T12:16:10.925Z,3.70
2023-05-05T12:18:39.301Z,3.90
2023-05-05T12:21:16.343Z,3.63
2023-05-05T12:23:44.634Z,3.37
2023-05-05T12:26:26.027Z,3.47
2023-05-05T12:28:54.272Z,3.70
2023-05-05T12:31:22.715Z,4.10
2023-05-05T12:33:51.213Z,3.57
2023-05-05T12:36:21.328Z,3.83
2023-05-05T12:38:49.667Z,3.63
2023-05-05T12:41:22.361Z,3.40
2023-05-05T12:43:56.154Z,3.47
2023-05-05T12:46:24.700Z,3.67
2023-05-05T12:49:01.946Z,4.00
2023-05-05T12:51:32.165Z,3.50
2023-05-05T12:54:04.404Z,4.13
2023-05-05T12:56:37.031Z,3.33
2023-05-05T12:59:06.642Z,3.40
2023-05-05T13:01:35.509Z,4.43
2023-05-05T13:04:07.911Z,4.40
2023-05-05T13:06:37.892Z,3.97
2023-05-05T13:09:06.778Z,3.83
2023-05-05T13:11:38.480Z,3.90
2023-05-05T13:14:07.830Z,4.30
2023-05-05T13:16:36.449Z,5.57
2023-05-05T13:19:04.855Z,4.97
2023-05-05T13:21:33.289Z,5.17
2023-05-05T13:24:18.988Z,4.73
2023-05-05T13:26:51.521Z,4.27
2023-05-05T13:29:20.320Z,4.50
2023-05-05T13:31:48.871Z,4.67
2023-05-05T13:34:17.573Z,4.73
2023-05-05T13:36:45.892Z,4.67
2023-05-05T13:39:15.691Z,4.40
2023-05-05T13:41:45.378Z,4.13
2023-05-05T13:44:14.361Z,4.20
2023-05-05T13:46:43.088Z,4.50
2023-05-05T13:49:11.726Z,4.10
2023-05-05T13:51:40.280Z,5.43
2023-05-05T13:54:08.738Z,4.90
2023-05-05T13:56:38.578Z,4.70
2023-05-05T13:59:06.969Z,3.90
2023-05-05T14:01:35.361Z,5.50
2023-05-05T14:04:05.642Z,4.93
2023-05-05T14:06:35.732Z,4.43
2023-05-05T14:09:06.247Z,4.60
2023-05-05T14:11:34.939Z,4.20
2023-05-05T14:14:04.654Z,4.70
2023-05-05T14:16:33.107Z,3.80
2023-05-05T14:19:01.624Z,4.07
2023-05-05T14:21:30.006Z,4.40
2023-05-05T14:23:58.320Z,4.43
2023-05-05T14:26:27.493Z,5.10
2023-05-05T14:28:55.911Z,4.80
2023-05-05T14:31:25.662Z,5.50
2023-05-05T14:33:54.696Z,5.60
2023-05-05T14:36:23.543Z,5.20
2023-05-05T14:38:51.939Z,5.17
2023-05-05T14:41:20.391Z,4.90
2023-05-05T14:43:48.819Z,4.60
2023-05-05T14:46:17.227Z,4.37
2023-05-05T14:48:47.544Z,5.13
2023-05-05T14:51:16.412Z,5.10
2023-05-05T14:53:44.801Z,4.10
2023-05-05T14:56:13.274Z,4.27
2023-05-05T14:58:41.705Z,4.00
2023-05-05T15:01:10.083Z,4.03
2023-05-05T15:03:38.581Z,3.40
2023-05-05T15:06:09.154Z,3.80
2023-05-05T15:08:39.018Z,3.30
2023-05-05T15:11:07.534Z,4.07
2023-05-05T15:13:38.538Z,4.43
2023-05-05T15:16:07.415Z,5.30
2023-05-05T15:18:35.850Z,5.00
2023-05-05T15:21:04.495Z,5.00
2023-05-05T15:23:34.852Z,4.83
2023-05-05T15:26:03.310Z,5.00
2023-05-05T15:28:31.720Z,4.83
2023-05-05T15:31:01.865Z,5.27
2023-05-05T15:33:30.966Z,6.00
2023-05-05T15:35:59.797Z,7.97
2023-05-05T15:38:29.049Z,5.77
2023-05-05T15:40:58.784Z,4.97
2023-05-05T15:43:27.216Z,4.60
2023-05-05T15:45:55.953Z,5.50
2023-05-05T15:48:24.352Z,5.60
2023-05-05T15:50:52.734Z,6.40
2023-05-05T15:53:21.335Z,5.80
2023-05-05T15:55:49.670Z,6.27
2023-05-05T15:58:19.337Z,5.10
2023-05-05T16:00:47.663Z,5.37
2023-05-05T16:03:16.270Z,5.70
2023-05-05T16:05:44.611Z,5.63
2023-05-05T16:08:13.047Z,5.60
2023-05-05T16:10:41.422Z,4.80
2023-05-05T16:13:09.944Z,5.57
2023-05-05T16:15:39.717Z,6.10
2023-05-05T16:18:08.098Z,5.60
2023-05-05T16:20:36.396Z,5.30
2023-05-05T16:23:04.758Z,6.10
2023-05-05T16:25:33.026Z,5.50
2023-05-05T16:28:01.774Z,5.97
2023-05-05T16:30:30.343Z,5.77
2023-05-05T16:33:00.330Z,5.50
2023-05-05T16:35:28.651Z,6.60
2023-05-05T16:37:57.481Z,6.87
2023-05-05T16:40:25.947Z,7.03
2023-05-05T16:42:54.342Z,7.90
2023-05-05T16:45:24.360Z,6.83
2023-05-05T16:47:52.830Z,6.50
2023-05-05T16:50:22.655Z,7.40
2023-05-05T16:52:51.693Z,8.17
2023-05-05T16:55:20.267Z,6.90
2023-05-05T16:57:48.939Z,7.33
2023-05-05T17:00:17.425Z,6.97
2023-05-05T17:02:48.111Z,8.03
2023-05-05T17:05:19.969Z,6.63
2023-05-05T17:07:50.077Z,6.93
2023-05-05T17:10:18.997Z,7.77
2023-05-05T17:12:47.502Z,7.43
2023-05-05T17:15:16.122Z,7.10
2023-05-05T17:17:44.400Z,7.97
2023-05-05T17:20:13.145Z,8.70
2023-05-05T17:22:48.249Z,8.03
2023-05-05T17:25:18.233Z,6.93
2023-05-05T17:27:46.767Z,7.50
2023-05-05T17:30:16.187Z,6.90
2023-05-05T17:32:44.571Z,8.00
2023-05-05T17:35:13.024Z,8.00
2023-05-05T17:37:41.481Z,7.13
2023-05-05T17:40:10.375Z,7.80
2023-05-05T17:42:40.524Z,7.60
2023-05-05T17:45:09.606Z,7.33
2023-05-05T17:47:38.185Z,6.57
2023-05-05T17:50:06.980Z,5.83
2023-05-05T17:52:35.371Z,7.10
2023-05-05T17:55:03.688Z,6.60
2023-05-05T17:57:32.074Z,5.67
2023-05-05T18:00:04.554Z,6.50
2023-05-05T18:02:33.035Z,5.77
2023-05-05T18:05:01.715Z,5.20
2023-05-05T18:07:30.093Z,4.70
2023-05-05T18:09:58.670Z,4.63
2023-05-05T18:12:27.109Z,5.57
2023-05-05T18:14:55.452Z,5.80
2023-05-05T18:17:25.097Z,6.20
2023-05-05T18:19:53.521Z,6.50
2023-05-05T18:22:22.096Z,5.23
2023-05-05T18:24:50.540Z,6.83
2023-05-05T18:27:18.791Z,5.93
2023-05-05T18:29:47.150Z,6.20
2023-05-05T18:32:15.595Z,5.33
2023-05-05T18:34:45.401Z,4.33
2023-05-05T18:37:13.830Z,4.03
2023-05-05T18:39:44.017Z,8.90
2023-05-05T18:42:13.105Z,5.90
2023-05-05T18:44:41.584Z,6.13
2023-05-05T18:47:10.220Z,7.17
2023-05-05T18:49:38.671Z,5.40
2023-05-05T18:52:08.370Z,4.60
2023-05-05T18:54:37.912Z,4.60
2023-05-05T18:57:06.808Z,5.23
2023-05-05T18:59:35.142Z,5.60
2023-05-05T19:02:03.646Z,2.90
2023-05-05T19:04:36.441Z,1.60
2023-05-05T19:07:04.928Z,1.40
2023-05-05T19:09:34.763Z,1.20
2023-05-05T19:12:03.926Z,1.73
2023-05-05T19:14:32.452Z,2.30
2023-05-05T19:17:01.510Z,2.37
2023-05-05T19:19:29.915Z,1.80
2023-05-05T19:21:58.396Z,1.73
2023-05-05T19:24:26.724Z,2.20
2023-05-05T19:26:56.534Z,1.77
2023-05-05T19:29:25.036Z,1.80
2023-05-05T19:31:53.478Z,1.40
2023-05-05T19:34:21.917Z,1.30
2023-05-05T19:36:50.331Z,1.63
2023-05-05T19:39:18.788Z,1.50
2023-05-05T19:41:47.166Z,1.77
2023-05-05T19:44:17.054Z,1.90
2023-05-05T19:46:45.372Z,1.53
2023-05-05T19:49:14.194Z,1.70
2023-05-05T19:51:43.774Z,1.53
2023-05-05T19:54:12.180Z,1.93
2023-05-05T19:56:40.665Z,1.50
2023-05-05T19:59:09.396Z,1.67
2023-05-05T20:01:39.279Z,1.20
2023-05-05T20:04:07.755Z,1.50
2023-05-05T20:06:36.397Z,1.10
2023-05-05T20:09:05.011Z,1.30
2023-05-05T20:11:33.526Z,1.40
2023-05-05T20:14:01.779Z,1.10
2023-05-05T20:16:30.725Z,1.10
2023-05-05T20:19:00.396Z,1.20
2023-05-05T20:21:29.159Z,1.53
2023-05-05T20:23:57.456Z,1.30
2023-05-05T20:26:25.979Z,1.30
2023-05-05T20:28:54.656Z,1.37
2023-05-05T20:31:23.079Z,1.20
2023-05-05T20:33:51.572Z,1.53
2023-05-05T20:36:21.327Z,1.30
2023-05-05T20:38:49.825Z,1.77
2023-05-05T20:41:18.313Z,1.23
2023-05-05T20:43:46.673Z,1.20
2023-05-05T20:46:15.054Z,1.30
2023-05-05T20:48:43.646Z,1.20
2023-05-05T20:51:12.041Z,1.53
2023-05-05T20:53:41.813Z,2.03
2023-05-05T20:56:10.167Z,1.50
2023-05-05T20:58:38.585Z,1.60
2023-05-05T21:01:07.090Z,1.90
2023-05-05T21:03:35.505Z,2.10
2023-05-05T21:06:04.072Z,1.83
2023-05-05T21:08:32.530Z,1.83
2023-05-05T21:11:02.328Z,2.03
2023-05-05T21:13:30.716Z,2.17
2023-05-05T21:15:59.106Z,1.90
2023-05-05T21:18:27.742Z,2.20
2023-05-05T21:20:56.295Z,1.80
2023-05-05T21:23:24.825Z,1.77
2023-05-05T21:25:53.268Z,1.83
2023-05-05T21:28:23.019Z,1.93
2023-05-05T21:31:10.196Z,2.03
2023-05-05T21:33:39.947Z,1.90
2023-05-05T21:36:08.525Z,1.87
2023-05-05T21:38:36.960Z,2.50
2023-05-05T21:41:05.405Z,2.20
2023-05-05T21:43:35.151Z,1.70
2023-05-05T21:46:04.334Z,1.97
2023-05-05T21:48:32.835Z,2.00
2023-05-05T21:51:01.322Z,2.00
2023-05-05T21:53:29.699Z,2.67
2023-05-05T21:55:58.070Z,1.93
2023-05-05T21:58:26.402Z,2.10
2023-05-05T22:00:56.428Z,2.10
2023-05-05T22:03:26.095Z,2.27
2023-05-05T22:05:54.813Z,2.40
2023-05-05T22:08:23.232Z,2.23
2023-05-05T22:10:51.568Z,2.30
2023-05-05T22:13:20.104Z,2.60
2023-05-05T22:15:48.574Z,2.37
2023-05-05T22:18:18.330Z,2.03
2023-05-05T22:20:46.948Z,2.70
2023-05-05T22:23:16.290Z,2.80
2023-05-05T22:25:45.514Z,2.33
2023-05-05T22:28:13.870Z,2.20
2023-05-05T22:30:42.468Z,2.17
2023-05-05T22:33:10.878Z,2.13
2023-05-05T22:35:40.884Z,2.30
2023-05-05T22:38:09.267Z,2.20
2023-05-05T22:40:37.674Z,2.20
2023-05-05T22:43:06.226Z,2.33
2023-05-05T22:45:35.162Z,2.30
2023-05-05T22:48:03.871Z,2.23
2023-05-05T22:50:32.280Z,1.90
2023-05-05T22:53:02.087Z,2.23
2023-05-05T22:55:30.615Z,2.40
2023-05-05T22:57:58.951Z,2.10
2023-05-05T23:00:27.361Z,2.40
2023-05-05T23:02:55.847Z,2.67
2023-05-05T23:05:24.236Z,2.43
2023-05-05T23:07:52.885Z,2.13
2023-05-05T23:10:22.630Z,2.40
2023-05-05T23:12:51.160Z,2.50
2023-05-05T23:15:19.703Z,2.50
2023-05-05T23:17:48.200Z,2.37
2023-05-05T23:20:16.586Z,2.33
2023-05-05T23:22:44.942Z,2.83
2023-05-05T23:25:13.310Z,2.03
2023-05-05T23:27:43.872Z,1.80
2023-05-05T23:30:12.863Z,2.00
2023-05-05T23:32:42.714Z,2.00
2023-05-05T23:35:11.706Z,1.90
2023-05-05T23:37:40.344Z,2.20
2023-05-05T23:40:09.430Z,2.37
2023-05-05T23:42:37.852Z,2.00
2023-05-05T23:45:08.543Z,1.83
2023-05-05T23:47:37.050Z,1.57
2023-05-05T23:50:05.622Z,1.93
2023-05-05T23:52:33.972Z,1.83
2023-05-05T23:55:02.328Z,1.50
2023-05-05T23:57:30.606Z,1.80
2023-05-05T23:59:58.889Z,1.83
